sensor_id;sensor_type;location;lat;lon;timestamp;P1;durP1;ratioP1;P2;durP2;ratioP2
12784;SDS011;6456;42.680;23.260;2023-03-01T00:00:40;4.40;;;4.00;;
12784;SDS011;6456;42.680;23.260;2023-03-01T00:03:11;4.40;;;3.73;;
12784;SDS011;6456;42.680;23.260;2023-03-01T00:05:44;4.40;;;3.97;;
12784;SDS011;6456;42.680;23.260;2023-03-01T00:08:11;4.00;;;3.60;;
12784;SDS011;6456;42.680;23.260;2023-03-01T00:10:38;3.60;;;3.30;;
12784;SDS011;6456;42.680;23.260;2023-03-01T00:13:05;3.80;;;3.40;;
12784;SDS011;6456;42.680;23.260;2023-03-01T00:15:32;4.20;;;3.80;;
12784;SDS011;6456;42.680;23.260;2023-03-01T00:17:59;4.30;;;3.90;;
12784;SDS011;6456;42.680;23.260;2023-03-01T00:20:26;3.67;;;3.37;;
12784;SDS011;6456;42.680;23.260;2023-03-01T00:22:55;4.40;;;3.93;;
12784;SDS011;6456;42.680;23.260;2023-03-01T00:25:21;4.13;;;3.73;;
12784;SDS011;6456;42.680;23.260;2023-03-01T00:27:48;4.03;;;3.73;;
12784;SDS011;6456;42.680;23.260;2023-03-01T00:30:15;4.10;;;3.80;;
12784;SDS011;6456;42.680;23.260;2023-03-01T00:32:42;4.03;;;3.63;;
12784;SDS011;6456;42.680;23.260;2023-03-01T00:35:09;4.30;;;3.43;;
12784;SDS011;6456;42.680;23.260;2023-03-01T00:37:36;3.67;;;3.27;;
12784;SDS011;6456;42.680;23.260;2023-03-01T00:40:05;3.70;;;3.40;;
12784;SDS011;6456;42.680;23.260;2023-03-01T00:42:32;3.87;;;3.20;;
12784;SDS011;6456;42.680;23.260;2023-03-01T00:44:59;3.83;;;3.53;;
12784;SDS011;6456;42.680;23.260;2023-03-01T00:47:28;3.50;;;3.20;;
12784;SDS011;6456;42.680;23.260;2023-03-01T00:49:55;3.73;;;3.43;;
12784;SDS011;6456;42.680;23.260;2023-03-01T00:52:22;3.47;;;3.17;;
12784;SDS011;6456;42.680;23.260;2023-03-01T00:54:51;3.60;;;3.30;;
12784;SDS011;6456;42.680;23.260;2023-03-01T00:57:20;4.27;;;2.97;;
12784;SDS011;6456;42.680;23.260;2023-03-01T00:59:47;3.43;;;3.13;;
12784;SDS011;6456;42.680;23.260;2023-03-01T01:02:13;3.37;;;3.07;;
12784;SDS011;6456;42.680;23.260;2023-03-01T01:04:40;2.90;;;2.70;;
12784;SDS011;6456;42.680;23.260;2023-03-01T01:07:07;3.50;;;3.10;;
12784;SDS011;6456;42.680;23.260;2023-03-01T01:09:34;3.00;;;2.80;;
12784;SDS011;6456;42.680;23.260;2023-03-01T01:12:01;2.80;;;2.60;;
12784;SDS011;6456;42.680;23.260;2023-03-01T01:14:29;2.53;;;2.33;;
12784;SDS011;6456;42.680;23.260;2023-03-01T01:16:56;2.73;;;2.53;;
12784;SDS011;6456;42.680;23.260;2023-03-01T01:19:24;2.60;;;2.40;;
12784;SDS011;6456;42.680;23.260;2023-03-01T01:21:51;3.33;;;2.43;;
12784;SDS011;6456;42.680;23.260;2023-03-01T01:24:19;2.40;;;2.23;;
12784;SDS011;6456;42.680;23.260;2023-03-01T01:26:45;2.50;;;2.30;;
12784;SDS011;6456;42.680;23.260;2023-03-01T01:29:12;2.73;;;2.53;;
12784;SDS011;6456;42.680;23.260;2023-03-01T01:31:41;2.73;;;2.53;;
12784;SDS011;6456;42.680;23.260;2023-03-01T01:34:16;2.90;;;2.70;;
12784;SDS011;6456;42.680;23.260;2023-03-01T01:36:47;2.50;;;2.30;;
12784;SDS011;6456;42.680;23.260;2023-03-01T01:39:14;2.17;;;1.97;;
12784;SDS011;6456;42.680;23.260;2023-03-01T01:41:41;1.90;;;1.80;;
12784;SDS011;6456;42.680;23.260;2023-03-01T01:44:15;2.10;;;2.00;;
12784;SDS011;6456;42.680;23.260;2023-03-01T01:46:47;2.30;;;2.10;;
12784;SDS011;6456;42.680;23.260;2023-03-01T01:49:23;1.80;;;1.70;;
12784;SDS011;6456;42.680;23.260;2023-03-01T01:51:55;1.80;;;1.70;;
12784;SDS011;6456;42.680;23.260;2023-03-01T01:54:27;1.63;;;1.53;;
12784;SDS011;6456;42.680;23.260;2023-03-01T01:57:00;2.90;;;1.70;;
12784;SDS011;6456;42.680;23.260;2023-03-01T01:59:30;1.77;;;1.67;;
12784;SDS011;6456;42.680;23.260;2023-03-01T02:02:00;1.60;;;1.50;;
12784;SDS011;6456;42.680;23.260;2023-03-01T02:04:29;1.70;;;1.60;;
12784;SDS011;6456;42.680;23.260;2023-03-01T02:06:58;1.80;;;1.70;;
12784;SDS011;6456;42.680;23.260;2023-03-01T02:09:29;1.33;;;1.30;;
12784;SDS011;6456;42.680;23.260;2023-03-01T02:11:57;1.80;;;1.70;;
12784;SDS011;6456;42.680;23.260;2023-03-01T02:14:25;1.60;;;1.50;;
12784;SDS011;6456;42.680;23.260;2023-03-01T02:16:52;1.60;;;1.50;;
12784;SDS011;6456;42.680;23.260;2023-03-01T02:19:23;1.87;;;1.77;;
12784;SDS011;6456;42.680;23.260;2023-03-01T02:22:01;1.53;;;1.50;;
12784;SDS011;6456;42.680;23.260;2023-03-01T02:24:37;1.60;;;1.50;;
12784;SDS011;6456;42.680;23.260;2023-03-01T02:27:17;1.30;;;1.30;;
12784;SDS011;6456;42.680;23.260;2023-03-01T02:29:51;1.70;;;1.60;;
12784;SDS011;6456;42.680;23.260;2023-03-01T02:32:18;1.57;;;1.50;;
12784;SDS011;6456;42.680;23.260;2023-03-01T02:34:50;1.40;;;1.30;;
12784;SDS011;6456;42.680;23.260;2023-03-01T02:37:18;3.07;;;1.73;;
12784;SDS011;6456;42.680;23.260;2023-03-01T02:39:50;1.73;;;1.63;;
12784;SDS011;6456;42.680;23.260;2023-03-01T02:42:23;2.13;;;1.80;;
12784;SDS011;6456;42.680;23.260;2023-03-01T02:44:56;1.80;;;1.70;;
12784;SDS011;6456;42.680;23.260;2023-03-01T02:47:22;1.90;;;1.80;;
12784;SDS011;6456;42.680;23.260;2023-03-01T02:49:49;2.03;;;1.90;;
12784;SDS011;6456;42.680;23.260;2023-03-01T02:52:20;1.70;;;1.60;;
12784;SDS011;6456;42.680;23.260;2023-03-01T02:54:56;2.43;;;2.00;;
12784;SDS011;6456;42.680;23.260;2023-03-01T02:57:27;2.10;;;2.00;;
12784;SDS011;6456;42.680;23.260;2023-03-01T02:59:58;2.10;;;2.00;;
12784;SDS011;6456;42.680;23.260;2023-03-01T03:02:32;2.30;;;2.20;;
12784;SDS011;6456;42.680;23.260;2023-03-01T03:05:05;2.07;;;1.97;;
12784;SDS011;6456;42.680;23.260;2023-03-01T03:07:34;2.10;;;2.00;;
12784;SDS011;6456;42.680;23.260;2023-03-01T03:10:02;2.47;;;2.27;;
12784;SDS011;6456;42.680;23.260;2023-03-01T03:12:30;2.37;;;2.27;;
12784;SDS011;6456;42.680;23.260;2023-03-01T03:14:58;2.40;;;2.30;;
12784;SDS011;6456;42.680;23.260;2023-03-01T03:17:25;2.50;;;2.30;;
12784;SDS011;6456;42.680;23.260;2023-03-01T03:19:52;2.70;;;2.50;;
12784;SDS011;6456;42.680;23.260;2023-03-01T03:22:19;2.73;;;2.53;;
12784;SDS011;6456;42.680;23.260;2023-03-01T03:24:46;2.93;;;2.73;;
12784;SDS011;6456;42.680;23.260;2023-03-01T03:27:12;3.40;;;3.10;;
12784;SDS011;6456;42.680;23.260;2023-03-01T03:29:39;2.77;;;2.57;;
12784;SDS011;6456;42.680;23.260;2023-03-01T03:32:07;3.07;;;2.77;;
12784;SDS011;6456;42.680;23.260;2023-03-01T03:34:34;3.63;;;3.33;;
12784;SDS011;6456;42.680;23.260;2023-03-01T03:37:01;3.30;;;3.00;;
12784;SDS011;6456;42.680;23.260;2023-03-01T03:39:28;3.60;;;3.30;;
12784;SDS011;6456;42.680;23.260;2023-03-01T03:42:00;3.37;;;3.10;;
12784;SDS011;6456;42.680;23.260;2023-03-01T03:44:27;3.50;;;3.17;;
12784;SDS011;6456;42.680;23.260;2023-03-01T03:46:53;3.80;;;3.50;;
12784;SDS011;6456;42.680;23.260;2023-03-01T03:49:22;3.50;;;3.10;;
12784;SDS011;6456;42.680;23.260;2023-03-01T03:51:49;3.40;;;3.10;;
12784;SDS011;6456;42.680;23.260;2023-03-01T03:54:15;3.10;;;2.90;;
12784;SDS011;6456;42.680;23.260;2023-03-01T03:56:42;3.20;;;2.97;;
12784;SDS011;6456;42.680;23.260;2023-03-01T03:59:09;3.17;;;2.97;;
12784;SDS011;6456;42.680;23.260;2023-03-01T04:01:36;3.57;;;3.27;;
12784;SDS011;6456;42.680;23.260;2023-03-01T04:04:03;3.37;;;3.07;;
12784;SDS011;6456;42.680;23.260;2023-03-01T04:06:34;3.53;;;3.23;;
12784;SDS011;6456;42.680;23.260;2023-03-01T04:09:01;3.20;;;2.90;;
12784;SDS011;6456;42.680;23.260;2023-03-01T04:11:28;2.77;;;2.57;;
12784;SDS011;6456;42.680;23.260;2023-03-01T04:13:55;3.10;;;2.90;;
12784;SDS011;6456;42.680;23.260;2023-03-01T04:16:24;3.40;;;3.10;;
12784;SDS011;6456;42.680;23.260;2023-03-01T04:18:51;3.30;;;3.00;;
12784;SDS011;6456;42.680;23.260;2023-03-01T04:21:19;2.77;;;2.50;;
12784;SDS011;6456;42.680;23.260;2023-03-01T04:23:48;3.30;;;3.00;;
12784;SDS011;6456;42.680;23.260;2023-03-01T04:26:17;3.20;;;2.90;;
12784;SDS011;6456;42.680;23.260;2023-03-01T04:28:45;3.30;;;2.83;;
12784;SDS011;6456;42.680;23.260;2023-03-01T04:31:15;2.97;;;2.77;;
12784;SDS011;6456;42.680;23.260;2023-03-01T04:33:44;3.33;;;3.03;;
12784;SDS011;6456;42.680;23.260;2023-03-01T04:36:13;3.20;;;2.90;;
12784;SDS011;6456;42.680;23.260;2023-03-01T04:38:41;3.83;;;3.07;;
12784;SDS011;6456;42.680;23.260;2023-03-01T04:41:14;3.20;;;2.90;;
12784;SDS011;6456;42.680;23.260;2023-03-01T04:43:42;3.60;;;3.27;;
12784;SDS011;6456;42.680;23.260;2023-03-01T04:46:10;3.60;;;3.20;;
12784;SDS011;6456;42.680;23.260;2023-03-01T04:48:39;2.70;;;2.50;;
12784;SDS011;6456;42.680;23.260;2023-03-01T04:51:07;3.20;;;2.90;;
12784;SDS011;6456;42.680;23.260;2023-03-01T04:53:34;3.17;;;2.87;;
12784;SDS011;6456;42.680;23.260;2023-03-01T04:56:02;2.57;;;2.37;;
12784;SDS011;6456;42.680;23.260;2023-03-01T04:58:31;3.13;;;2.83;;
12784;SDS011;6456;42.680;23.260;2023-03-01T05:00:58;2.90;;;2.63;;
12784;SDS011;6456;42.680;23.260;2023-03-01T05:03:25;3.00;;;2.70;;
12784;SDS011;6456;42.680;23.260;2023-03-01T05:05:53;2.90;;;2.70;;
12784;SDS011;6456;42.680;23.260;2023-03-01T05:08:20;2.70;;;2.50;;
12784;SDS011;6456;42.680;23.260;2023-03-01T05:10:48;3.07;;;2.80;;
12784;SDS011;6456;42.680;23.260;2023-03-01T05:13:17;3.10;;;2.70;;
12784;SDS011;6456;42.680;23.260;2023-03-01T05:15:48;3.10;;;2.80;;
12784;SDS011;6456;42.680;23.260;2023-03-01T05:18:19;2.97;;;2.70;;
12784;SDS011;6456;42.680;23.260;2023-03-01T05:20:50;3.40;;;2.83;;
12784;SDS011;6456;42.680;23.260;2023-03-01T05:23:17;2.97;;;2.77;;
12784;SDS011;6456;42.680;23.260;2023-03-01T05:25:47;3.47;;;3.17;;
12784;SDS011;6456;42.680;23.260;2023-03-01T05:28:19;3.40;;;3.10;;
12784;SDS011;6456;42.680;23.260;2023-03-01T05:30:46;2.87;;;2.67;;
12784;SDS011;6456;42.680;23.260;2023-03-01T05:33:16;3.43;;;3.13;;
12784;SDS011;6456;42.680;23.260;2023-03-01T05:35:44;3.60;;;3.30;;
12784;SDS011;6456;42.680;23.260;2023-03-01T05:38:13;3.07;;;2.67;;
12784;SDS011;6456;42.680;23.260;2023-03-01T05:40:41;3.70;;;2.80;;
12784;SDS011;6456;42.680;23.260;2023-03-01T05:43:09;2.47;;;2.27;;
12784;SDS011;6456;42.680;23.260;2023-03-01T05:45:37;3.23;;;2.93;;
12784;SDS011;6456;42.680;23.260;2023-03-01T05:48:06;3.37;;;3.07;;
12784;SDS011;6456;42.680;23.260;2023-03-01T05:50:37;4.53;;;2.70;;
12784;SDS011;6456;42.680;23.260;2023-03-01T05:53:06;3.03;;;2.73;;
12784;SDS011;6456;42.680;23.260;2023-03-01T05:55:35;4.90;;;3.60;;
12784;SDS011;6456;42.680;23.260;2023-03-01T05:58:03;4.23;;;3.80;;
12784;SDS011;6456;42.680;23.260;2023-03-01T06:00:33;8.20;;;4.40;;
12784;SDS011;6456;42.680;23.260;2023-03-01T06:03:00;3.87;;;3.57;;
12784;SDS011;6456;42.680;23.260;2023-03-01T06:05:29;7.07;;;5.27;;
12784;SDS011;6456;42.680;23.260;2023-03-01T06:07:58;5.57;;;4.13;;
12784;SDS011;6456;42.680;23.260;2023-03-01T06:10:26;4.20;;;3.80;;
12784;SDS011;6456;42.680;23.260;2023-03-01T06:12:53;7.27;;;4.43;;
12784;SDS011;6456;42.680;23.260;2023-03-01T06:15:20;6.20;;;4.67;;
12784;SDS011;6456;42.680;23.260;2023-03-01T06:17:48;5.53;;;4.70;;
12784;SDS011;6456;42.680;23.260;2023-03-01T06:20:16;6.47;;;4.97;;
12784;SDS011;6456;42.680;23.260;2023-03-01T06:22:46;4.17;;;3.77;;
12784;SDS011;6456;42.680;23.260;2023-03-01T06:25:14;4.47;;;3.70;;
12784;SDS011;6456;42.680;23.260;2023-03-01T06:27:43;6.67;;;3.60;;
12784;SDS011;6456;42.680;23.260;2023-03-01T06:30:11;6.03;;;3.40;;
12784;SDS011;6456;42.680;23.260;2023-03-01T06:32:39;5.27;;;3.03;;
12784;SDS011;6456;42.680;23.260;2023-03-01T06:35:07;4.13;;;3.40;;
12784;SDS011;6456;42.680;23.260;2023-03-01T06:37:35;3.90;;;3.30;;
12784;SDS011;6456;42.680;23.260;2023-03-01T06:40:04;3.60;;;2.87;;
12784;SDS011;6456;42.680;23.260;2023-03-01T06:42:49;3.67;;;3.10;;
12784;SDS011;6456;42.680;23.260;2023-03-01T06:45:17;3.23;;;2.90;;
12784;SDS011;6456;42.680;23.260;2023-03-01T06:47:45;4.53;;;3.37;;
12784;SDS011;6456;42.680;23.260;2023-03-01T06:50:12;4.40;;;2.77;;
12784;SDS011;6456;42.680;23.260;2023-03-01T06:52:40;2.73;;;2.53;;
12784;SDS011;6456;42.680;23.260;2023-03-01T06:55:11;3.37;;;3.07;;
12784;SDS011;6456;42.680;23.260;2023-03-01T06:57:38;7.40;;;3.47;;
12784;SDS011;6456;42.680;23.260;2023-03-01T07:00:06;3.67;;;2.70;;
12784;SDS011;6456;42.680;23.260;2023-03-01T07:02:35;4.00;;;3.13;;
12784;SDS011;6456;42.680;23.260;2023-03-01T07:05:02;3.37;;;3.07;;
12784;SDS011;6456;42.680;23.260;2023-03-01T07:07:29;3.27;;;2.97;;
12784;SDS011;6456;42.680;23.260;2023-03-01T07:09:55;3.47;;;2.90;;
12784;SDS011;6456;42.680;23.260;2023-03-01T07:12:24;5.23;;;3.50;;
12784;SDS011;6456;42.680;23.260;2023-03-01T07:14:50;5.67;;;3.20;;
12784;SDS011;6456;42.680;23.260;2023-03-01T07:17:17;3.03;;;2.67;;
12784;SDS011;6456;42.680;23.260;2023-03-01T07:19:44;2.73;;;2.43;;
12784;SDS011;6456;42.680;23.260;2023-03-01T07:22:11;3.43;;;2.80;;
12784;SDS011;6456;42.680;23.260;2023-03-01T07:24:38;3.73;;;3.30;;
12784;SDS011;6456;42.680;23.260;2023-03-01T07:29:53;4.47;;;3.97;;
12784;SDS011;6456;42.680;23.260;2023-03-01T07:32:20;4.00;;;3.00;;
12784;SDS011;6456;42.680;23.260;2023-03-01T07:34:47;2.73;;;2.50;;
12784;SDS011;6456;42.680;23.260;2023-03-01T07:37:14;2.80;;;2.20;;
12784;SDS011;6456;42.680;23.260;2023-03-01T07:39:41;2.53;;;2.37;;
12784;SDS011;6456;42.680;23.260;2023-03-01T07:42:08;2.47;;;2.20;;
12784;SDS011;6456;42.680;23.260;2023-03-01T07:44:36;7.87;;;3.10;;
12784;SDS011;6456;42.680;23.260;2023-03-01T07:47:03;3.27;;;2.50;;
12784;SDS011;6456;42.680;23.260;2023-03-01T07:49:30;3.13;;;2.70;;
12784;SDS011;6456;42.680;23.260;2023-03-01T07:51:56;3.67;;;2.80;;
12784;SDS011;6456;42.680;23.260;2023-03-01T07:54:23;3.30;;;3.00;;
12784;SDS011;6456;42.680;23.260;2023-03-01T07:56:51;2.77;;;2.57;;
12784;SDS011;6456;42.680;23.260;2023-03-01T07:59:19;4.23;;;3.03;;
12784;SDS011;6456;42.680;23.260;2023-03-01T08:01:48;3.30;;;3.00;;
12784;SDS011;6456;42.680;23.260;2023-03-01T08:04:14;3.70;;;3.27;;
12784;SDS011;6456;42.680;23.260;2023-03-01T08:06:41;3.63;;;3.20;;
12784;SDS011;6456;42.680;23.260;2023-03-01T08:09:08;4.03;;;2.60;;
12784;SDS011;6456;42.680;23.260;2023-03-01T08:11:35;3.17;;;2.70;;
12784;SDS011;6456;42.680;23.260;2023-03-01T08:14:02;3.57;;;3.27;;
12784;SDS011;6456;42.680;23.260;2023-03-01T08:16:29;4.23;;;3.17;;
12784;SDS011;6456;42.680;23.260;2023-03-01T08:19:02;5.37;;;2.70;;
12784;SDS011;6456;42.680;23.260;2023-03-01T08:21:30;3.43;;;2.47;;
12784;SDS011;6456;42.680;23.260;2023-03-01T08:23:57;3.97;;;2.87;;
12784;SDS011;6456;42.680;23.260;2023-03-01T08:26:23;3.73;;;2.97;;
12784;SDS011;6456;42.680;23.260;2023-03-01T08:28:50;5.47;;;3.30;;
12784;SDS011;6456;42.680;23.260;2023-03-01T08:31:18;4.43;;;3.77;;
12784;SDS011;6456;42.680;23.260;2023-03-01T08:33:47;6.90;;;5.10;;
12784;SDS011;6456;42.680;23.260;2023-03-01T08:36:21;14.83;;;4.57;;
12784;SDS011;6456;42.680;23.260;2023-03-01T08:38:48;6.80;;;4.23;;
12784;SDS011;6456;42.680;23.260;2023-03-01T08:41:15;7.33;;;4.10;;
12784;SDS011;6456;42.680;23.260;2023-03-01T08:43:42;4.93;;;4.20;;
12784;SDS011;6456;42.680;23.260;2023-03-01T08:46:09;4.23;;;3.83;;
12784;SDS011;6456;42.680;23.260;2023-03-01T08:48:36;4.40;;;4.00;;
12784;SDS011;6456;42.680;23.260;2023-03-01T08:51:07;5.60;;;3.80;;
12784;SDS011;6456;42.680;23.260;2023-03-01T08:53:36;3.70;;;3.40;;
12784;SDS011;6456;42.680;23.260;2023-03-01T08:56:03;4.93;;;4.00;;
12784;SDS011;6456;42.680;23.260;2023-03-01T08:58:30;4.77;;;4.27;;
12784;SDS011;6456;42.680;23.260;2023-03-01T09:00:58;3.47;;;3.17;;
12784;SDS011;6456;42.680;23.260;2023-03-01T09:03:25;3.07;;;2.83;;
12784;SDS011;6456;42.680;23.260;2023-03-01T09:05:52;4.23;;;2.43;;
12784;SDS011;6456;42.680;23.260;2023-03-01T09:08:19;5.37;;;2.83;;
12784;SDS011;6456;42.680;23.260;2023-03-01T09:10:47;2.77;;;2.57;;
12784;SDS011;6456;42.680;23.260;2023-03-01T09:13:14;5.03;;;2.87;;
12784;SDS011;6456;42.680;23.260;2023-03-01T09:15:41;2.90;;;2.70;;
12784;SDS011;6456;42.680;23.260;2023-03-01T09:18:08;3.40;;;3.10;;
12784;SDS011;6456;42.680;23.260;2023-03-01T09:20:35;4.90;;;3.30;;
12784;SDS011;6456;42.680;23.260;2023-03-01T09:23:02;3.63;;;3.30;;
12784;SDS011;6456;42.680;23.260;2023-03-01T09:25:29;3.43;;;3.10;;
12784;SDS011;6456;42.680;23.260;2023-03-01T09:27:57;3.70;;;3.37;;
12784;SDS011;6456;42.680;23.260;2023-03-01T09:30:24;3.50;;;3.20;;
12784;SDS011;6456;42.680;23.260;2023-03-01T09:32:51;3.10;;;2.63;;
12784;SDS011;6456;42.680;23.260;2023-03-01T09:35:18;3.17;;;2.97;;
12784;SDS011;6456;42.680;23.260;2023-03-01T09:37:45;2.77;;;2.57;;
12784;SDS011;6456;42.680;23.260;2023-03-01T09:40:12;2.83;;;2.60;;
12784;SDS011;6456;42.680;23.260;2023-03-01T09:42:46;4.97;;;2.23;;
12784;SDS011;6456;42.680;23.260;2023-03-01T09:45:23;2.40;;;2.30;;
12784;SDS011;6456;42.680;23.260;2023-03-01T09:47:54;8.80;;;3.70;;
12784;SDS011;6456;42.680;23.260;2023-03-01T09:50:22;2.60;;;2.40;;
12784;SDS011;6456;42.680;23.260;2023-03-01T09:52:52;2.57;;;2.37;;
12784;SDS011;6456;42.680;23.260;2023-03-01T09:55:26;2.23;;;2.03;;
12784;SDS011;6456;42.680;23.260;2023-03-01T09:57:59;3.33;;;2.27;;
12784;SDS011;6456;42.680;23.260;2023-03-01T10:00:35;2.77;;;2.57;;
12784;SDS011;6456;42.680;23.260;2023-03-01T10:03:11;2.57;;;2.37;;
12784;SDS011;6456;42.680;23.260;2023-03-01T10:05:48;2.00;;;1.90;;
12784;SDS011;6456;42.680;23.260;2023-03-01T10:08:33;2.03;;;1.73;;
12784;SDS011;6456;42.680;23.260;2023-03-01T10:11:04;4.10;;;2.20;;
12784;SDS011;6456;42.680;23.260;2023-03-01T10:13:45;3.23;;;2.30;;
12784;SDS011;6456;42.680;23.260;2023-03-01T10:16:21;2.40;;;2.20;;
12784;SDS011;6456;42.680;23.260;2023-03-01T10:18:53;2.17;;;1.97;;
12784;SDS011;6456;42.680;23.260;2023-03-01T10:21:25;3.10;;;2.40;;
12784;SDS011;6456;42.680;23.260;2023-03-01T10:23:54;2.53;;;2.33;;
12784;SDS011;6456;42.680;23.260;2023-03-01T10:26:35;2.33;;;1.97;;
12784;SDS011;6456;42.680;23.260;2023-03-01T10:29:10;3.10;;;2.47;;
12784;SDS011;6456;42.680;23.260;2023-03-01T10:31:41;3.47;;;2.60;;
12784;SDS011;6456;42.680;23.260;2023-03-01T10:34:11;2.93;;;2.40;;
12784;SDS011;6456;42.680;23.260;2023-03-01T10:36:39;4.43;;;2.67;;
12784;SDS011;6456;42.680;23.260;2023-03-01T10:39:12;3.23;;;2.50;;
12784;SDS011;6456;42.680;23.260;2023-03-01T10:41:59;4.23;;;3.10;;
12784;SDS011;6456;42.680;23.260;2023-03-01T10:44:38;3.73;;;2.70;;
12784;SDS011;6456;42.680;23.260;2023-03-01T10:47:13;2.97;;;2.60;;
12784;SDS011;6456;42.680;23.260;2023-03-01T10:52:55;5.73;;;3.10;;
12784;SDS011;6456;42.680;23.260;2023-03-01T10:55:24;3.10;;;2.83;;
12784;SDS011;6456;42.680;23.260;2023-03-01T10:58:06;3.30;;;2.93;;
12784;SDS011;6456;42.680;23.260;2023-03-01T11:00:45;2.97;;;2.67;;
12784;SDS011;6456;42.680;23.260;2023-03-01T11:03:16;3.83;;;2.77;;
12784;SDS011;6456;42.680;23.260;2023-03-01T11:08:47;2.67;;;2.43;;
12784;SDS011;6456;42.680;23.260;2023-03-01T11:11:26;3.03;;;2.73;;
12784;SDS011;6456;42.680;23.260;2023-03-01T11:13:58;3.63;;;3.03;;
12784;SDS011;6456;42.680;23.260;2023-03-01T11:16:31;5.00;;;2.90;;
12784;SDS011;6456;42.680;23.260;2023-03-01T11:19:04;3.60;;;2.80;;
12784;SDS011;6456;42.680;23.260;2023-03-01T11:21:43;3.10;;;2.80;;
12784;SDS011;6456;42.680;23.260;2023-03-01T11:24:18;7.17;;;2.93;;
12784;SDS011;6456;42.680;23.260;2023-03-01T11:26:51;2.90;;;2.70;;
12784;SDS011;6456;42.680;23.260;2023-03-01T11:29:24;4.03;;;2.17;;
12784;SDS011;6456;42.680;23.260;2023-03-01T11:31:56;3.73;;;2.50;;
12784;SDS011;6456;42.680;23.260;2023-03-01T11:34:32;6.30;;;3.10;;
12784;SDS011;6456;42.680;23.260;2023-03-01T11:37:09;10.97;;;3.37;;
12784;SDS011;6456;42.680;23.260;2023-03-01T11:39:51;5.03;;;2.70;;
12784;SDS011;6456;42.680;23.260;2023-03-01T11:42:25;7.27;;;2.80;;
12784;SDS011;6456;42.680;23.260;2023-03-01T11:44:59;5.40;;;2.83;;
12784;SDS011;6456;42.680;23.260;2023-03-01T11:47:33;4.90;;;3.00;;
12784;SDS011;6456;42.680;23.260;2023-03-01T11:50:18;3.07;;;2.40;;
12784;SDS011;6456;42.680;23.260;2023-03-01T11:52:56;3.37;;;2.20;;
12784;SDS011;6456;42.680;23.260;2023-03-01T11:55:38;2.63;;;2.43;;
12784;SDS011;6456;42.680;23.260;2023-03-01T11:58:23;4.37;;;2.77;;
12784;SDS011;6456;42.680;23.260;2023-03-01T12:01:02;2.70;;;2.50;;
12784;SDS011;6456;42.680;23.260;2023-03-01T12:03:51;4.27;;;2.80;;
12784;SDS011;6456;42.680;23.260;2023-03-01T12:06:33;12.83;;;3.37;;
12784;SDS011;6456;42.680;23.260;2023-03-01T12:09:14;2.93;;;2.60;;
12784;SDS011;6456;42.680;23.260;2023-03-01T12:12:11;3.93;;;3.30;;
12784;SDS011;6456;42.680;23.260;2023-03-01T12:15:09;3.53;;;3.20;;
12784;SDS011;6456;42.680;23.260;2023-03-01T12:18:02;4.80;;;3.03;;
12784;SDS011;6456;42.680;23.260;2023-03-01T12:20:40;7.33;;;3.20;;
12784;SDS011;6456;42.680;23.260;2023-03-01T12:26:16;4.33;;;3.30;;
12784;SDS011;6456;42.680;23.260;2023-03-01T12:29:01;4.50;;;4.07;;
12784;SDS011;6456;42.680;23.260;2023-03-01T12:34:47;5.37;;;3.27;;
12784;SDS011;6456;42.680;23.260;2023-03-01T12:37:25;6.57;;;4.00;;
12784;SDS011;6456;42.680;23.260;2023-03-01T12:40:09;5.40;;;3.23;;
12784;SDS011;6456;42.680;23.260;2023-03-01T12:42:52;5.43;;;3.57;;
12784;SDS011;6456;42.680;23.260;2023-03-01T12:45:37;4.27;;;3.47;;
12784;SDS011;6456;42.680;23.260;2023-03-01T12:48:38;4.03;;;3.60;;
12784;SDS011;6456;42.680;23.260;2023-03-01T12:51:14;4.17;;;3.77;;
12784;SDS011;6456;42.680;23.260;2023-03-01T12:53:43;4.03;;;3.73;;
12784;SDS011;6456;42.680;23.260;2023-03-01T12:56:18;3.37;;;3.07;;
12784;SDS011;6456;42.680;23.260;2023-03-01T12:58:51;3.70;;;3.20;;
12784;SDS011;6456;42.680;23.260;2023-03-01T13:01:30;4.77;;;4.13;;
12784;SDS011;6456;42.680;23.260;2023-03-01T13:04:20;3.50;;;3.20;;
12784;SDS011;6456;42.680;23.260;2023-03-01T13:06:58;3.80;;;3.50;;
12784;SDS011;6456;42.680;23.260;2023-03-01T13:09:38;5.23;;;3.60;;
12784;SDS011;6456;42.680;23.260;2023-03-01T13:15:26;3.30;;;3.10;;
12784;SDS011;6456;42.680;23.260;2023-03-01T13:17:58;11.40;;;7.07;;
12784;SDS011;6456;42.680;23.260;2023-03-01T13:20:32;4.03;;;3.67;;
12784;SDS011;6456;42.680;23.260;2023-03-01T13:23:11;7.10;;;4.50;;
12784;SDS011;6456;42.680;23.260;2023-03-01T13:26:03;4.57;;;3.43;;
12784;SDS011;6456;42.680;23.260;2023-03-01T13:28:45;3.20;;;2.73;;
12784;SDS011;6456;42.680;23.260;2023-03-01T13:34:47;4.13;;;3.40;;
12784;SDS011;6456;42.680;23.260;2023-03-01T13:37:19;5.63;;;3.00;;
12784;SDS011;6456;42.680;23.260;2023-03-01T13:39:54;3.37;;;3.07;;
12784;SDS011;6456;42.680;23.260;2023-03-01T13:42:33;3.23;;;2.30;;
12784;SDS011;6456;42.680;23.260;2023-03-01T13:45:21;3.57;;;3.17;;
12784;SDS011;6456;42.680;23.260;2023-03-01T13:47:59;5.03;;;3.13;;
12784;SDS011;6456;42.680;23.260;2023-03-01T13:50:32;3.43;;;3.13;;
12784;SDS011;6456;42.680;23.260;2023-03-01T13:53:03;3.63;;;3.33;;
12784;SDS011;6456;42.680;23.260;2023-03-01T13:55:36;4.53;;;3.67;;
12784;SDS011;6456;42.680;23.260;2023-03-01T13:58:14;4.40;;;3.77;;
12784;SDS011;6456;42.680;23.260;2023-03-01T14:00:46;7.97;;;4.67;;
12784;SDS011;6456;42.680;23.260;2023-03-01T14:03:14;6.33;;;3.60;;
12784;SDS011;6456;42.680;23.260;2023-03-01T14:05:43;5.13;;;3.80;;
12784;SDS011;6456;42.680;23.260;2023-03-01T14:08:24;11.03;;;4.27;;
12784;SDS011;6456;42.680;23.260;2023-03-01T14:11:00;4.77;;;3.60;;
12784;SDS011;6456;42.680;23.260;2023-03-01T14:13:45;5.63;;;3.50;;
12784;SDS011;6456;42.680;23.260;2023-03-01T14:16:25;4.90;;;4.10;;
12784;SDS011;6456;42.680;23.260;2023-03-01T14:19:03;4.97;;;4.03;;
12784;SDS011;6456;42.680;23.260;2023-03-01T14:21:39;4.10;;;3.40;;
12784;SDS011;6456;42.680;23.260;2023-03-01T14:24:06;5.20;;;3.90;;
12784;SDS011;6456;42.680;23.260;2023-03-01T14:26:44;3.43;;;3.13;;
12784;SDS011;6456;42.680;23.260;2023-03-01T14:29:23;4.13;;;3.30;;
12784;SDS011;6456;42.680;23.260;2023-03-01T14:31:52;4.03;;;3.53;;
12784;SDS011;6456;42.680;23.260;2023-03-01T14:37:17;10.67;;;3.67;;
12784;SDS011;6456;42.680;23.260;2023-03-01T14:39:46;4.73;;;3.80;;
12784;SDS011;6456;42.680;23.260;2023-03-01T14:42:14;5.27;;;3.50;;
12784;SDS011;6456;42.680;23.260;2023-03-01T14:44:42;3.30;;;3.00;;
12784;SDS011;6456;42.680;23.260;2023-03-01T14:47:14;5.13;;;4.00;;
12784;SDS011;6456;42.680;23.260;2023-03-01T14:49:48;6.17;;;3.97;;
12784;SDS011;6456;42.680;23.260;2023-03-01T14:52:21;6.47;;;3.53;;
12784;SDS011;6456;42.680;23.260;2023-03-01T14:54:52;4.70;;;2.87;;
12784;SDS011;6456;42.680;23.260;2023-03-01T14:57:21;4.33;;;3.57;;
12784;SDS011;6456;42.680;23.260;2023-03-01T14:59:50;7.13;;;3.50;;
12784;SDS011;6456;42.680;23.260;2023-03-01T15:02:22;5.80;;;3.17;;
12784;SDS011;6456;42.680;23.260;2023-03-01T15:04:51;5.37;;;3.37;;
12784;SDS011;6456;42.680;23.260;2023-03-01T15:07:21;3.30;;;2.70;;
12784;SDS011;6456;42.680;23.260;2023-03-01T15:09:52;4.10;;;3.13;;
12784;SDS011;6456;42.680;23.260;2023-03-01T15:12:33;4.60;;;2.73;;
12784;SDS011;6456;42.680;23.260;2023-03-01T15:15:06;3.90;;;2.60;;
12784;SDS011;6456;42.680;23.260;2023-03-01T15:17:50;7.57;;;3.10;;
12784;SDS011;6456;42.680;23.260;2023-03-01T15:20:22;5.80;;;2.90;;
12784;SDS011;6456;42.680;23.260;2023-03-01T15:22:52;4.70;;;2.97;;
12784;SDS011;6456;42.680;23.260;2023-03-01T15:25:21;5.40;;;3.00;;
12784;SDS011;6456;42.680;23.260;2023-03-01T15:27:51;5.17;;;3.33;;
12784;SDS011;6456;42.680;23.260;2023-03-01T15:30:20;5.23;;;3.27;;
12784;SDS011;6456;42.680;23.260;2023-03-01T15:32:54;5.27;;;3.67;;
12784;SDS011;6456;42.680;23.260;2023-03-01T15:35:45;3.87;;;2.70;;